createdAt,value
2023-01-10T00:00:27.708Z,0.63
2023-01-10T00:02:54.622Z,0.70
2023-01-10T00:05:21.355Z,0.60
2023-01-10T00:07:48.026Z,0.80
2023-01-10T00:10:14.998Z,0.80
2023-01-10T00:13:00.893Z,0.70
2023-01-10T00:15:27.509Z,0.80
2023-01-10T00:17:54.171Z,0.70
2023-01-10T00:20:20.795Z,0.98
2023-01-10T00:22:49.343Z,0.85
2023-01-10T00:25:16.098Z,0.88
2023-01-10T00:27:45.291Z,0.90
2023-01-10T00:30:15.461Z,0.88
2023-01-10T00:32:43.530Z,1.00
2023-01-10T00:35:11.271Z,0.98
2023-01-10T00:37:39.060Z,1.15
2023-01-10T00:40:10.200Z,1.10
2023-01-10T00:42:56.136Z,1.02
2023-01-10T00:45:24.991Z,1.35
2023-01-10T00:47:52.691Z,1.20
2023-01-10T00:50:19.417Z,0.98
2023-01-10T00:52:46.061Z,1.23
2023-01-10T00:55:12.703Z,1.20
2023-01-10T00:57:39.445Z,1.25
2023-01-10T01:00:09.142Z,1.23
2023-01-10T01:02:36.236Z,1.05
2023-01-10T01:05:03.387Z,1.33
2023-01-10T01:07:30.214Z,1.30
2023-01-10T01:10:15.609Z,1.27
2023-01-10T01:12:42.216Z,1.95
2023-01-10T01:15:09.276Z,1.98
2023-01-10T01:17:35.960Z,2.03
2023-01-10T01:20:02.700Z,1.70
2023-01-10T01:22:29.288Z,2.10
2023-01-10T01:24:56.121Z,1.98
2023-01-10T01:27:22.748Z,1.75
2023-01-10T01:29:49.316Z,2.00
2023-01-10T01:32:15.902Z,2.10
2023-01-10T01:34:42.594Z,2.33
2023-01-10T01:37:09.363Z,1.95
2023-01-10T01:39:35.928Z,1.70
2023-01-10T01:42:02.885Z,2.30
2023-01-10T01:44:32.580Z,2.30
2023-01-10T01:47:07.791Z,2.00
2023-01-10T01:49:40.420Z,2.15
2023-01-10T01:52:12.342Z,1.83
2023-01-10T01:54:39.004Z,1.90
2023-01-10T01:57:13.252Z,1.88
2023-01-10T01:59:45.303Z,1.98
2023-01-10T02:02:20.266Z,2.22
2023-01-10T02:04:56.619Z,2.10
2023-01-10T02:07:25.985Z,1.95
2023-01-10T02:10:03.627Z,2.55
2023-01-10T02:12:31.951Z,2.40
2023-01-10T02:14:59.771Z,2.05
2023-01-10T02:17:26.340Z,2.08
2023-01-10T02:19:59.188Z,1.95
2023-01-10T02:22:45.308Z,1.75
2023-01-10T02:25:36.019Z,1.40
2023-01-10T02:28:40.257Z,1.60
2023-01-10T02:31:06.905Z,1.48
2023-01-10T02:33:38.001Z,1.73
2023-01-10T02:36:58.574Z,1.65
2023-01-10T02:39:57.479Z,1.27
2023-01-10T02:42:49.007Z,1.23
2023-01-10T02:45:36.851Z,1.42
2023-01-10T02:48:03.740Z,1.60
2023-01-10T02:50:45.218Z,1.30
2023-01-10T02:53:24.180Z,1.30
2023-01-10T02:55:59.952Z,1.30
2023-01-10T02:58:52.661Z,1.30
2023-01-10T03:01:32.735Z,1.50
2023-01-10T03:04:17.945Z,1.38
2023-01-10T03:07:15.094Z,1.42
2023-01-10T03:09:52.673Z,1.50
2023-01-10T03:12:35.025Z,1.25
2023-01-10T03:15:03.893Z,1.42
2023-01-10T03:17:31.306Z,1.40
2023-01-10T03:20:02.562Z,2.20
2023-01-10T03:22:31.413Z,1.17
2023-01-10T03:25:01.159Z,1.52
2023-01-10T03:27:48.778Z,1.40
2023-01-10T03:30:28.392Z,1.80
2023-01-10T03:32:56.889Z,1.40
2023-01-10T03:35:34.576Z,1.98
2023-01-10T03:38:15.964Z,1.45
2023-01-10T03:41:04.057Z,1.40
2023-01-10T03:44:12.668Z,1.80
2023-01-10T03:47:10.044Z,1.20
2023-01-10T03:49:40.061Z,1.92
2023-01-10T03:52:09.740Z,1.52
2023-01-10T03:54:36.500Z,1.75
2023-01-10T03:57:03.125Z,1.58
2023-01-10T03:59:30.542Z,1.80
2023-01-10T04:01:57.214Z,2.05
2023-01-10T04:04:24.126Z,1.58
2023-01-10T04:06:50.764Z,1.67
2023-01-10T04:09:17.380Z,1.60
2023-01-10T04:11:44.000Z,1.90
2023-01-10T04:14:10.650Z,1.50
2023-01-10T04:16:37.301Z,1.77
2023-01-10T04:19:03.992Z,1.65
2023-01-10T04:21:30.629Z,1.77
2023-01-10T04:23:57.208Z,1.75
2023-01-10T04:26:23.843Z,1.50
2023-01-10T04:28:50.420Z,1.52
2023-01-10T04:31:17.076Z,1.50
2023-01-10T04:33:43.729Z,1.48
2023-01-10T04:36:10.347Z,1.25
2023-01-10T04:38:36.920Z,1.48
2023-01-10T04:41:03.557Z,1.63
2023-01-10T04:43:30.226Z,1.45
2023-01-10T04:45:56.869Z,1.50
2023-01-10T04:48:23.508Z,1.52
2023-01-10T04:50:51.960Z,1.60
2023-01-10T04:53:19.167Z,1.48
2023-01-10T04:55:46.128Z,1.40
2023-01-10T04:58:12.924Z,1.52
2023-01-10T05:00:39.749Z,1.00
2023-01-10T05:03:06.552Z,1.48
2023-01-10T05:05:33.255Z,1.60
2023-01-10T05:07:59.855Z,1.20
2023-01-10T05:10:26.969Z,1.40
2023-01-10T05:12:53.637Z,1.45
2023-01-10T05:15:21.165Z,1.33
2023-01-10T05:17:47.756Z,1.17
2023-01-10T05:20:14.462Z,1.20
2023-01-10T05:22:41.331Z,1.30
2023-01-10T05:25:08.272Z,1.05
2023-01-10T05:27:34.951Z,1.17
2023-01-10T05:30:01.536Z,1.13
2023-01-10T05:32:29.559Z,1.00
2023-01-10T05:34:56.581Z,1.38
2023-01-10T05:37:23.184Z,0.90
2023-01-10T05:39:49.751Z,1.10
2023-01-10T05:42:16.370Z,1.13
2023-01-10T05:44:42.985Z,1.05
2023-01-10T05:47:09.705Z,1.23
2023-01-10T05:49:36.333Z,1.23
2023-01-10T05:52:03.165Z,1.13
2023-01-10T05:54:30.812Z,0.90
2023-01-10T05:56:57.910Z,0.88
2023-01-10T05:59:28.425Z,1.48
2023-01-10T06:01:55.425Z,1.20
2023-01-10T06:04:22.029Z,1.15
2023-01-10T06:06:48.625Z,0.95
2023-01-10T06:09:15.212Z,1.65
2023-01-10T06:11:41.942Z,1.27
2023-01-10T06:14:08.549Z,2.17
2023-01-10T06:16:35.205Z,1.48
2023-01-10T06:19:01.797Z,1.95
2023-01-10T06:21:28.508Z,1.52
2023-01-10T06:23:55.132Z,2.17
2023-01-10T06:26:21.807Z,1.90
2023-01-10T06:28:48.372Z,2.25
2023-01-10T06:31:15.140Z,2.30
2023-01-10T06:33:43.871Z,1.90
2023-01-10T06:36:11.153Z,2.05
2023-01-10T06:38:38.047Z,1.70
2023-01-10T06:41:13.052Z,2.03
2023-01-10T06:43:45.350Z,1.80
2023-01-10T06:46:19.389Z,2.20
2023-01-10T06:48:46.863Z,2.28
2023-01-10T06:51:14.860Z,2.20
2023-01-10T06:53:42.080Z,2.55
2023-01-10T06:56:09.820Z,2.35
2023-01-10T06:58:41.081Z,2.03
2023-01-10T07:01:13.718Z,1.75
2023-01-10T07:03:40.847Z,1.87
2023-01-10T07:06:10.239Z,2.10
2023-01-10T07:08:41.910Z,1.92
2023-01-10T07:11:11.345Z,1.77
2023-01-10T07:13:38.355Z,1.67
2023-01-10T07:16:07.238Z,1.80
2023-01-10T07:18:35.205Z,1.95
2023-01-10T07:21:02.019Z,1.70
2023-01-10T07:23:31.135Z,1.80
2023-01-10T07:25:59.218Z,1.92
2023-01-10T07:28:25.857Z,1.70
2023-01-10T07:30:52.479Z,1.60
2023-01-10T07:33:19.261Z,1.67
2023-01-10T07:35:45.907Z,2.10
2023-01-10T07:38:12.604Z,1.65
2023-01-10T07:40:39.219Z,1.70
2023-01-10T07:43:05.938Z,2.13
2023-01-10T07:45:32.598Z,2.35
2023-01-10T07:48:01.117Z,2.38
2023-01-10T07:50:29.701Z,1.30
2023-01-10T07:52:56.988Z,1.75
2023-01-10T07:55:23.573Z,1.80
2023-01-10T07:57:51.448Z,2.00
2023-01-10T08:00:19.158Z,1.73
2023-01-10T08:02:46.793Z,1.73
2023-01-10T08:05:14.297Z,2.08
2023-01-10T08:07:40.915Z,2.55
2023-01-10T08:10:08.123Z,2.22
2023-01-10T08:12:34.907Z,3.00
2023-01-10T08:15:01.626Z,2.58
2023-01-10T08:17:28.312Z,2.72
2023-01-10T08:19:54.911Z,2.28
2023-01-10T08:22:21.526Z,2.47
2023-01-10T08:24:48.258Z,2.13
2023-01-10T08:27:14.842Z,2.45
2023-01-10T08:29:42.146Z,1.95
2023-01-10T08:32:09.224Z,2.70
2023-01-10T08:34:35.830Z,2.45
2023-01-10T08:37:02.594Z,2.33
2023-01-10T08:39:30.641Z,1.80
2023-01-10T08:41:57.736Z,2.15
2023-01-10T08:44:24.354Z,2.38
2023-01-10T08:46:51.013Z,2.40
2023-01-10T08:49:17.684Z,2.35
2023-01-10T08:51:44.687Z,1.88
2023-01-10T08:54:11.308Z,2.10
2023-01-10T08:56:40.097Z,2.50
2023-01-10T08:59:07.672Z,2.50
2023-01-10T09:01:34.841Z,3.17
2023-01-10T09:04:01.602Z,3.28
2023-01-10T09:06:28.406Z,1.98
2023-01-10T09:08:54.995Z,2.13
2023-01-10T09:11:21.592Z,2.47
2023-01-10T09:13:51.260Z,2.17
2023-01-10T09:16:18.711Z,1.90
2023-01-10T09:18:45.888Z,2.05
2023-01-10T09:21:13.048Z,1.85
2023-01-10T09:23:40.453Z,1.52
2023-01-10T09:26:07.196Z,2.10
2023-01-10T09:28:33.847Z,2.35
2023-01-10T09:31:01.319Z,2.30
2023-01-10T09:33:34.950Z,1.92
2023-01-10T09:38:40.401Z,2.40
2023-01-10T09:41:22.069Z,1.98
2023-01-10T09:44:25.106Z,2.17
2023-01-10T09:47:17.750Z,1.88
2023-01-10T09:49:56.599Z,2.60
2023-01-10T09:52:39.570Z,1.83
2023-01-10T09:55:20.415Z,1.83
2023-01-10T09:57:47.785Z,2.42
2023-01-10T10:00:21.626Z,2.00
2023-01-10T10:02:52.662Z,1.88
2023-01-10T10:05:20.894Z,2.00
2023-01-10T10:07:53.744Z,2.60
2023-01-10T10:10:48.071Z,2.28
2023-01-10T10:13:52.000Z,2.15
2023-01-10T10:16:49.031Z,2.40
2023-01-10T10:19:43.347Z,2.05
2023-01-10T10:22:47.368Z,2.10
2023-01-10T10:25:18.385Z,2.05
2023-01-10T10:28:09.646Z,2.65
2023-01-10T10:30:44.407Z,1.83
2023-01-10T10:33:19.971Z,2.15
2023-01-10T10:36:10.788Z,2.20
2023-01-10T10:38:42.469Z,2.10
2023-01-10T10:41:19.670Z,2.22
2023-01-10T10:43:47.943Z,2.60
2023-01-10T10:46:19.019Z,2.45
2023-01-10T10:48:53.551Z,2.00
2023-01-10T10:51:34.576Z,1.80
2023-01-10T10:54:01.429Z,1.90
2023-01-10T10:56:28.169Z,1.75
2023-01-10T10:58:58.211Z,1.88
2023-01-10T11:01:26.813Z,2.15
2023-01-10T11:04:00.629Z,2.15
2023-01-10T11:06:29.874Z,1.13
2023-01-10T11:09:00.093Z,1.98
2023-01-10T11:11:32.495Z,1.90
2023-01-10T11:14:02.110Z,1.92
2023-01-10T11:16:36.664Z,2.10
2023-01-10T11:19:19.980Z,2.30
2023-01-10T11:21:53.300Z,1.83
2023-01-10T11:24:33.577Z,1.80
2023-01-10T11:27:04.782Z,2.03
2023-01-10T11:29:47.086Z,1.85
2023-01-10T11:32:17.044Z,1.90
2023-01-10T11:34:53.861Z,1.90
2023-01-10T11:37:25.154Z,2.15
2023-01-10T11:40:16.079Z,2.03
2023-01-10T11:42:43.028Z,2.47
2023-01-10T11:45:25.294Z,1.70
2023-01-10T11:48:15.199Z,2.15
2023-01-10T11:50:48.924Z,1.95
2023-01-10T11:53:39.275Z,2.22
2023-01-10T11:56:07.354Z,1.90
2023-01-10T11:58:36.355Z,2.53
2023-01-10T12:01:03.122Z,1.70
2023-01-10T12:03:34.947Z,1.77
2023-01-10T12:06:14.062Z,1.95
2023-01-10T12:08:44.954Z,1.92
2023-01-10T12:11:17.475Z,2.25
2023-01-10T12:13:45.666Z,1.87
2023-01-10T12:16:22.059Z,1.92
2023-01-10T12:18:54.637Z,2.75
2023-01-10T12:21:30.835Z,2.28
2023-01-10T12:24:01.329Z,2.05
2023-01-10T12:26:32.245Z,2.38
2023-01-10T12:29:08.525Z,1.77
2023-01-10T12:31:39.070Z,2.03
2023-01-10T12:34:16.842Z,2.72
2023-01-10T12:37:01.229Z,2.42
2023-01-10T12:39:34.908Z,1.85
2023-01-10T12:42:26.027Z,2.20
2023-01-10T12:45:00.286Z,2.45
2023-01-10T12:47:51.538Z,2.25
2023-01-10T12:50:23.128Z,2.97
2023-01-10T12:53:23.274Z,2.20
2023-01-10T12:55:55.187Z,1.75
2023-01-10T12:58:47.082Z,1.80
2023-01-10T13:01:40.564Z,1.60
2023-01-10T13:04:12.028Z,1.70
2023-01-10T13:06:40.701Z,1.67
2023-01-10T13:09:19.810Z,1.70
2023-01-10T13:12:00.329Z,1.50
2023-01-10T13:14:40.165Z,2.00
2023-01-10T13:17:27.980Z,2.20
2023-01-10T13:20:16.325Z,1.60
2023-01-10T13:22:45.028Z,2.03
2023-01-10T13:25:24.702Z,1.70
2023-01-10T13:28:18.315Z,1.83
2023-01-10T13:30:53.270Z,2.45
2023-01-10T13:33:47.147Z,1.98
2023-01-10T13:36:24.354Z,2.35
2023-01-10T13:38:57.207Z,1.92
2023-01-10T13:41:43.626Z,2.70
2023-01-10T13:44:14.947Z,1.70
2023-01-10T13:46:43.115Z,2.20
2023-01-10T13:49:09.681Z,2.17
2023-01-10T13:51:37.275Z,2.10
2023-01-10T13:54:24.578Z,2.28
2023-01-10T13:56:51.460Z,2.78
2023-01-10T13:59:45.889Z,1.80
2023-01-10T14:02:34.257Z,2.28
2023-01-10T14:05:07.438Z,2.65
2023-01-10T14:07:45.397Z,2.35
2023-01-10T14:10:24.185Z,2.00
2023-01-10T14:13:09.513Z,1.63
2023-01-10T14:15:46.031Z,1.90
2023-01-10T14:18:33.028Z,2.42
2023-01-10T14:21:05.034Z,2.05
2023-01-10T14:23:36.432Z,2.10
2023-01-10T14:26:04.391Z,1.75
2023-01-10T14:28:34.421Z,2.15
2023-01-10T14:31:17.621Z,1.35
2023-01-10T14:33:45.172Z,2.33
2023-01-10T14:36:38.226Z,1.65
2023-01-10T14:39:07.297Z,1.30
2023-01-10T14:41:44.291Z,1.38
2023-01-10T14:44:16.948Z,2.88
2023-01-10T14:46:51.737Z,1.83
2023-01-10T14:49:31.277Z,1.42
2023-01-10T14:52:21.894Z,3.00
2023-01-10T14:54:56.954Z,1.83
2023-01-10T14:57:24.450Z,2.10
2023-01-10T15:00:00.892Z,2.20
2023-01-10T15:02:29.564Z,2.25
2023-01-10T15:05:07.590Z,2.35
2023-01-10T15:07:34.226Z,3.53
2023-01-10T15:10:06.009Z,2.85
2023-01-10T15:12:35.020Z,3.03
2023-01-10T15:15:12.330Z,2.63
2023-01-10T15:17:39.877Z,2.25
2023-01-10T15:20:07.117Z,1.50
2023-01-10T15:22:35.991Z,1.77
2023-01-10T15:25:18.860Z,2.55
2023-01-10T15:27:48.715Z,3.00
2023-01-10T15:30:36.056Z,2.00
2023-01-10T15:33:12.259Z,1.70
2023-01-10T15:35:39.655Z,2.10
2023-01-10T15:38:14.565Z,2.22
2023-01-10T15:40:42.543Z,1.55
2023-01-10T15:43:26.648Z,2.20
2023-01-10T15:45:55.868Z,1.50
2023-01-10T15:48:34.998Z,1.83
2023-01-10T15:51:11.906Z,3.10
2023-01-10T15:53:57.231Z,2.38
2023-01-10T15:56:29.403Z,2.38
2023-01-10T15:58:57.528Z,2.67
2023-01-10T16:01:26.391Z,2.10
2023-01-10T16:03:57.413Z,1.90
2023-01-10T16:06:33.338Z,1.52
2023-01-10T16:09:05.857Z,1.70
2023-01-10T16:12:08.103Z,3.47
2023-01-10T16:14:34.725Z,2.47
2023-01-10T16:17:02.150Z,3.13
2023-01-10T16:19:28.880Z,3.10
2023-01-10T16:21:58.080Z,2.90
2023-01-10T16:24:28.041Z,2.50
2023-01-10T16:26:56.524Z,2.60
2023-01-10T16:29:24.314Z,2.30
2023-01-10T16:31:52.282Z,2.80
2023-01-10T16:34:19.506Z,2.50
2023-01-10T16:36:46.885Z,3.60
2023-01-10T16:39:17.082Z,3.03
2023-01-10T16:42:03.733Z,3.95
2023-01-10T16:44:31.111Z,5.25
2023-01-10T16:46:58.241Z,5.40
2023-01-10T16:49:25.251Z,7.18
2023-01-10T16:51:52.234Z,8.15
2023-01-10T16:54:21.841Z,6.93
2023-01-10T16:56:49.478Z,6.53
2023-01-10T16:59:18.092Z,4.60
2023-01-10T17:01:50.011Z,5.47
2023-01-10T17:04:29.816Z,7.20
2023-01-10T17:06:57.015Z,5.88
2023-01-10T17:09:29.456Z,8.55
2023-01-10T17:12:02.207Z,7.15
2023-01-10T17:14:34.034Z,7.20
2023-01-10T17:17:03.284Z,6.15
2023-01-10T17:19:30.181Z,5.32
2023-01-10T17:21:56.886Z,4.07
2023-01-10T17:24:23.679Z,3.42
2023-01-10T17:26:50.398Z,3.92
2023-01-10T17:29:17.015Z,3.47
2023-01-10T17:31:43.709Z,3.55
2023-01-10T17:34:10.406Z,4.47
2023-01-10T17:36:39.508Z,3.50
2023-01-10T17:39:07.019Z,4.03
2023-01-10T17:41:34.071Z,3.78
2023-01-10T17:44:00.790Z,4.18
2023-01-10T17:46:27.416Z,3.20
2023-01-10T17:48:54.079Z,3.25
2023-01-10T17:51:22.857Z,3.38
2023-01-10T17:53:49.491Z,2.80
2023-01-10T17:56:16.540Z,4.68
2023-01-10T17:58:44.486Z,4.95
2023-01-10T18:01:21.765Z,4.80
2023-01-10T18:03:51.512Z,4.90
2023-01-10T18:06:24.018Z,5.03
2023-01-10T18:08:51.598Z,4.70
2023-01-10T18:11:18.257Z,4.40
2023-01-10T18:13:45.101Z,4.40
2023-01-10T18:16:11.698Z,4.60
2023-01-10T18:18:39.019Z,5.05
2023-01-10T18:21:12.876Z,5.47
2023-01-10T18:23:39.530Z,5.40
2023-01-10T18:26:09.482Z,5.75
2023-01-10T18:28:42.744Z,5.07
2023-01-10T18:31:18.396Z,5.32
2023-01-10T18:33:46.178Z,6.07
2023-01-10T18:36:15.446Z,6.00
2023-01-10T18:38:42.380Z,4.55
2023-01-10T18:41:09.244Z,4.20
2023-01-10T18:43:35.931Z,4.85
2023-01-10T18:46:05.752Z,4.65
2023-01-10T18:48:32.781Z,4.00
2023-01-10T18:51:00.978Z,4.45
2023-01-10T18:53:27.928Z,4.20
2023-01-10T18:56:04.332Z,4.47
2023-01-10T18:58:33.962Z,4.07
2023-01-10T19:01:17.276Z,3.60
2023-01-10T19:03:44.716Z,3.35
2023-01-10T19:06:15.737Z,2.28
2023-01-10T19:08:43.406Z,1.98
2023-01-10T19:11:16.283Z,2.42
2023-01-10T19:13:45.092Z,2.20
2023-01-10T19:16:26.734Z,1.33
2023-01-10T19:18:58.988Z,1.70
2023-01-10T19:21:27.353Z,1.58
2023-01-10T19:23:56.535Z,1.70
2023-01-10T19:26:24.787Z,1.63
2023-01-10T19:28:51.739Z,2.17
2023-01-10T19:31:20.644Z,2.50
2023-01-10T19:33:48.198Z,2.25
2023-01-10T19:36:15.736Z,2.03
2023-01-10T19:38:42.454Z,2.30
2023-01-10T19:41:09.674Z,2.58
2023-01-10T19:43:36.408Z,2.53
2023-01-10T19:46:12.841Z,3.25
2023-01-10T19:48:40.724Z,2.72
2023-01-10T19:51:12.513Z,2.55
2023-01-10T19:53:44.156Z,2.90
2023-01-10T19:56:12.195Z,2.90
2023-01-10T19:58:39.456Z,4.90
2023-01-10T20:01:23.867Z,4.22
2023-01-10T20:03:50.973Z,4.47
2023-01-10T20:06:21.654Z,4.07
2023-01-10T20:08:48.859Z,4.13
2023-01-10T20:11:16.489Z,4.13
2023-01-10T20:13:48.252Z,4.28
2023-01-10T20:16:22.622Z,3.75
2023-01-10T20:18:51.229Z,3.20
2023-01-10T20:21:19.815Z,2.53
2023-01-10T20:23:46.798Z,2.05
2023-01-10T20:26:19.055Z,2.83
2023-01-10T20:28:47.806Z,2.85
2023-01-10T20:31:18.300Z,2.97
2023-01-10T20:33:45.051Z,2.95
2023-01-10T20:36:14.772Z,3.03
2023-01-10T20:38:41.484Z,1.80
2023-01-10T20:41:12.353Z,1.83
2023-01-10T20:43:39.505Z,1.63
2023-01-10T20:46:08.241Z,1.05
2023-01-10T20:48:35.152Z,1.10
2023-01-10T20:51:02.126Z,1.00
2023-01-10T20:53:28.700Z,0.95
2023-01-10T20:55:59.996Z,2.00
2023-01-10T20:58:26.913Z,1.70
2023-01-10T21:00:54.271Z,0.90
2023-01-10T21:03:20.873Z,1.50
2023-01-10T21:05:54.440Z,1.45
2023-01-10T21:08:22.131Z,1.83
2023-01-10T21:10:50.053Z,1.67
2023-01-10T21:13:16.925Z,1.40
2023-01-10T21:15:46.844Z,1.48
2023-01-10T21:18:15.679Z,1.88
2023-01-10T21:20:44.054Z,1.85
2023-01-10T21:23:11.460Z,1.92
2023-01-10T21:25:38.669Z,1.92
2023-01-10T21:28:09.599Z,2.00
2023-01-10T21:30:37.345Z,1.80
2023-01-10T21:33:04.730Z,1.30
2023-01-10T21:35:31.785Z,1.73
2023-01-10T21:37:58.684Z,1.50
2023-01-10T21:40:26.117Z,1.70
2023-01-10T21:42:53.071Z,1.30
2023-01-10T21:45:21.339Z,1.45
2023-01-10T21:47:50.956Z,1.92
2023-01-10T21:50:20.672Z,2.10
2023-01-10T21:52:48.987Z,2.20
2023-01-10T21:55:16.378Z,2.17
2023-01-10T21:57:43.005Z,1.90
2023-01-10T22:00:10.309Z,1.52
2023-01-10T22:02:36.899Z,1.73
2023-01-10T22:05:03.755Z,1.20
2023-01-10T22:07:30.658Z,1.38
2023-01-10T22:09:57.316Z,1.92
2023-01-10T22:12:25.248Z,1.27
2023-01-10T22:14:52.085Z,1.02
2023-01-10T22:17:18.697Z,1.20
2023-01-10T22:19:45.338Z,1.30
2023-01-10T22:22:12.110Z,1.08
2023-01-10T22:24:40.198Z,1.02
2023-01-10T22:27:06.925Z,1.00
2023-01-10T22:29:33.763Z,0.95
2023-01-10T22:32:00.338Z,1.13
2023-01-10T22:34:27.001Z,0.88
2023-01-10T22:36:53.599Z,1.10
2023-01-10T22:39:20.229Z,0.90
2023-01-10T22:41:46.899Z,0.98
2023-01-10T22:44:19.462Z,1.20
2023-01-10T22:46:46.866Z,0.77
2023-01-10T22:49:13.722Z,1.25
2023-01-10T22:51:40.335Z,1.02
2023-01-10T22:54:07.293Z,1.08
2023-01-10T22:56:33.994Z,2.08
2023-01-10T22:59:00.596Z,1.27
2023-01-10T23:01:27.316Z,1.50
2023-01-10T23:03:54.051Z,1.15
2023-01-10T23:06:20.824Z,1.20
2023-01-10T23:08:48.012Z,1.30
2023-01-10T23:11:16.857Z,1.70
2023-01-10T23:13:44.568Z,1.30
2023-01-10T23:16:16.810Z,0.98
2023-01-10T23:18:43.896Z,1.30
2023-01-10T23:21:10.751Z,1.35
2023-01-10T23:23:37.385Z,1.67
2023-01-10T23:26:07.480Z,2.05
2023-01-10T23:28:36.592Z,1.05
2023-01-10T23:31:04.675Z,1.55
2023-01-10T23:33:31.821Z,1.40
2023-01-10T23:35:58.779Z,1.55
2023-01-10T23:38:25.797Z,1.55
2023-01-10T23:40:52.857Z,1.60
2023-01-10T23:43:19.640Z,1.60
2023-01-10T23:45:46.439Z,2.33
2023-01-10T23:48:13.207Z,1.67
2023-01-10T23:50:39.889Z,2.20
2023-01-10T23:53:06.603Z,1.38
2023-01-10T23:55:33.524Z,1.45
2023-01-10T23:58:00.261Z,1.08
